sensor_id;sensor_type;location;lat;lon;timestamp;P1;durP1;ratioP1;P2;durP2;ratioP2
15094;SDS011;7648;52.264;9.632;2024-03-23T00:56:27;5.43;;;3.90;;
15094;SDS011;7648;52.264;9.632;2024-03-23T01:00:29;5.47;;;4.13;;
15094;SDS011;7648;52.264;9.632;2024-03-23T01:04:31;7.40;;;3.70;;
15094;SDS011;7648;52.264;9.632;2024-03-23T01:08:33;5.77;;;3.50;;
15094;SDS011;7648;52.264;9.632;2024-03-23T01:12:36;3.17;;;2.80;;
15094;SDS011;7648;52.264;9.632;2024-03-23T01:16:38;3.07;;;2.53;;
15094;SDS011;7648;52.264;9.632;2024-03-23T01:20:40;3.50;;;2.83;;
15094;SDS011;7648;52.264;9.632;2024-03-23T01:24:42;4.47;;;3.90;;
15094;SDS011;7648;52.264;9.632;2024-03-23T01:28:45;3.97;;;2.60;;
15094;SDS011;7648;52.264;9.632;2024-03-23T01:32:47;4.80;;;2.90;;
15094;SDS011;7648;52.264;9.632;2024-03-23T01:36:49;5.70;;;3.10;;
15094;SDS011;7648;52.264;9.632;2024-03-23T01:40:56;3.73;;;3.00;;
15094;SDS011;7648;52.264;9.632;2024-03-23T01:44:59;7.13;;;3.10;;
15094;SDS011;7648;52.264;9.632;2024-03-23T01:49:01;8.77;;;3.67;;
15094;SDS011;7648;52.264;9.632;2024-03-23T01:53:04;7.00;;;4.23;;
15094;SDS011;7648;52.264;9.632;2024-03-23T01:57:06;4.80;;;3.60;;
15094;SDS011;7648;52.264;9.632;2024-03-23T02:01:10;7.60;;;4.37;;
15094;SDS011;7648;52.264;9.632;2024-03-23T02:05:12;4.77;;;4.07;;
15094;SDS011;7648;52.264;9.632;2024-03-23T02:09:14;5.70;;;4.27;;
15094;SDS011;7648;52.264;9.632;2024-03-23T02:13:17;7.70;;;4.60;;
15094;SDS011;7648;52.264;9.632;2024-03-23T02:17:21;6.83;;;3.83;;
15094;SDS011;7648;52.264;9.632;2024-03-23T02:21:23;6.30;;;4.20;;
15094;SDS011;7648;52.264;9.632;2024-03-23T02:25:29;7.77;;;3.77;;
15094;SDS011;7648;52.264;9.632;2024-03-23T02:29:31;4.83;;;3.90;;
15094;SDS011;7648;52.264;9.632;2024-03-23T02:33:33;5.27;;;4.10;;
15094;SDS011;7648;52.264;9.632;2024-03-23T02:37:38;4.60;;;4.17;;
15094;SDS011;7648;52.264;9.632;2024-03-23T02:41:41;4.37;;;3.97;;
15094;SDS011;7648;52.264;9.632;2024-03-23T02:45:43;5.27;;;4.60;;
15094;SDS011;7648;52.264;9.632;2024-03-23T02:49:45;6.10;;;4.37;;
15094;SDS011;7648;52.264;9.632;2024-03-23T02:53:47;8.87;;;4.50;;
15094;SDS011;7648;52.264;9.632;2024-03-23T02:57:50;7.20;;;4.50;;
15094;SDS011;7648;52.264;9.632;2024-03-23T03:01:52;5.00;;;3.73;;
15094;SDS011;7648;52.264;9.632;2024-03-23T03:05:54;6.47;;;3.97;;
15094;SDS011;7648;52.264;9.632;2024-03-23T03:09:57;6.10;;;3.83;;
15094;SDS011;7648;52.264;9.632;2024-03-23T03:14:00;5.57;;;3.53;;
15094;SDS011;7648;52.264;9.632;2024-03-23T03:18:02;7.77;;;3.83;;
15094;SDS011;7648;52.264;9.632;2024-03-23T03:22:05;5.50;;;4.43;;
15094;SDS011;7648;52.264;9.632;2024-03-23T03:26:06;7.27;;;3.40;;
15094;SDS011;7648;52.264;9.632;2024-03-23T03:30:10;5.80;;;3.37;;
15094;SDS011;7648;52.264;9.632;2024-03-23T03:34:13;3.50;;;3.20;;
15094;SDS011;7648;52.264;9.632;2024-03-23T03:38:15;7.23;;;3.33;;
15094;SDS011;7648;52.264;9.632;2024-03-23T03:42:17;8.93;;;3.63;;
15094;SDS011;7648;52.264;9.632;2024-03-23T03:46:20;3.80;;;2.63;;
15094;SDS011;7648;52.264;9.632;2024-03-23T03:50:23;5.40;;;2.53;;
15094;SDS011;7648;52.264;9.632;2024-03-23T03:54:24;5.17;;;3.10;;
15094;SDS011;7648;52.264;9.632;2024-03-23T03:58:26;5.37;;;2.90;;
15094;SDS011;7648;52.264;9.632;2024-03-23T04:02:30;3.23;;;2.90;;
15094;SDS011;7648;52.264;9.632;2024-03-23T04:06:32;4.80;;;3.27;;
15094;SDS011;7648;52.264;9.632;2024-03-23T04:10:34;3.50;;;2.97;;
15094;SDS011;7648;52.264;9.632;2024-03-23T04:14:36;3.00;;;2.57;;
15094;SDS011;7648;52.264;9.632;2024-03-23T04:18:39;4.27;;;3.40;;
15094;SDS011;7648;52.264;9.632;2024-03-23T04:22:41;5.57;;;2.50;;
15094;SDS011;7648;52.264;9.632;2024-03-23T04:26:43;6.03;;;3.03;;
15094;SDS011;7648;52.264;9.632;2024-03-23T04:30:46;5.90;;;2.70;;
15094;SDS011;7648;52.264;9.632;2024-03-23T04:34:49;9.53;;;2.77;;
15094;SDS011;7648;52.264;9.632;2024-03-23T04:38:51;3.43;;;3.13;;
15094;SDS011;7648;52.264;9.632;2024-03-23T04:42:53;2.90;;;2.40;;
15094;SDS011;7648;52.264;9.632;2024-03-23T04:46:55;5.30;;;3.00;;
15094;SDS011;7648;52.264;9.632;2024-03-23T04:50:59;6.60;;;3.33;;
15094;SDS011;7648;52.264;9.632;2024-03-23T04:55:02;2.97;;;2.23;;
15094;SDS011;7648;52.264;9.632;2024-03-23T04:59:04;5.10;;;2.40;;
15094;SDS011;7648;52.264;9.632;2024-03-23T05:03:06;2.87;;;2.60;;
15094;SDS011;7648;52.264;9.632;2024-03-23T05:07:09;8.77;;;2.67;;
15094;SDS011;7648;52.264;9.632;2024-03-23T05:11:11;6.97;;;2.47;;
15094;SDS011;7648;52.264;9.632;2024-03-23T05:15:13;6.87;;;3.00;;
15094;SDS011;7648;52.264;9.632;2024-03-23T05:19:15;9.13;;;2.93;;
15094;SDS011;7648;52.264;9.632;2024-03-23T05:23:19;9.63;;;2.30;;
15094;SDS011;7648;52.264;9.632;2024-03-23T05:27:21;7.67;;;2.27;;
15094;SDS011;7648;52.264;9.632;2024-03-23T05:31:23;6.13;;;2.13;;
15094;SDS011;7648;52.264;9.632;2024-03-23T05:35:25;6.23;;;2.23;;
15094;SDS011;7648;52.264;9.632;2024-03-23T05:39:28;5.00;;;2.70;;
15094;SDS011;7648;52.264;9.632;2024-03-23T05:43:30;8.60;;;2.50;;
15094;SDS011;7648;52.264;9.632;2024-03-23T05:47:32;2.33;;;1.50;;
15094;SDS011;7648;52.264;9.632;2024-03-23T05:51:34;6.00;;;2.43;;
15094;SDS011;7648;52.264;9.632;2024-03-23T05:55:36;2.13;;;1.90;;
15094;SDS011;7648;52.264;9.632;2024-03-23T05:59:38;4.93;;;2.20;;
15094;SDS011;7648;52.264;9.632;2024-03-23T06:03:40;6.23;;;2.03;;
15094;SDS011;7648;52.264;9.632;2024-03-23T06:07:44;3.83;;;1.73;;
15094;SDS011;7648;52.264;9.632;2024-03-23T06:11:48;3.27;;;1.80;;
15094;SDS011;7648;52.264;9.632;2024-03-23T06:15:50;7.80;;;2.20;;
15094;SDS011;7648;52.264;9.632;2024-03-23T06:19:52;5.40;;;1.97;;
15094;SDS011;7648;52.264;9.632;2024-03-23T06:23:54;3.53;;;2.27;;
15094;SDS011;7648;52.264;9.632;2024-03-23T06:27:57;5.50;;;2.47;;
15094;SDS011;7648;52.264;9.632;2024-03-23T06:31:59;9.17;;;2.40;;
15094;SDS011;7648;52.264;9.632;2024-03-23T06:36:01;5.33;;;2.07;;
15094;SDS011;7648;52.264;9.632;2024-03-23T06:40:04;7.90;;;2.63;;
15094;SDS011;7648;52.264;9.632;2024-03-23T06:44:11;10.23;;;2.57;;
15094;SDS011;7648;52.264;9.632;2024-03-23T06:48:13;6.83;;;2.37;;
15094;SDS011;7648;52.264;9.632;2024-03-23T06:52:14;4.30;;;2.70;;
15094;SDS011;7648;52.264;9.632;2024-03-23T06:56:17;2.60;;;2.33;;
15094;SDS011;7648;52.264;9.632;2024-03-23T07:00:20;6.10;;;2.90;;
15094;SDS011;7648;52.264;9.632;2024-03-23T07:04:22;13.17;;;3.97;;
15094;SDS011;7648;52.264;9.632;2024-03-23T07:08:24;10.43;;;3.10;;
15094;SDS011;7648;52.264;9.632;2024-03-23T07:12:26;12.43;;;3.60;;
15094;SDS011;7648;52.264;9.632;2024-03-23T07:16:29;8.07;;;3.87;;
15094;SDS011;7648;52.264;9.632;2024-03-23T07:20:31;10.67;;;3.80;;
15094;SDS011;7648;52.264;9.632;2024-03-23T07:24:33;5.13;;;3.83;;
15094;SDS011;7648;52.264;9.632;2024-03-23T07:28:35;10.07;;;4.43;;
15094;SDS011;7648;52.264;9.632;2024-03-23T07:32:39;8.30;;;4.73;;
15094;SDS011;7648;52.264;9.632;2024-03-23T07:36:41;16.53;;;5.47;;
15094;SDS011;7648;52.264;9.632;2024-03-23T07:40:43;15.20;;;6.23;;
15094;SDS011;7648;52.264;9.632;2024-03-23T07:44:45;10.67;;;5.07;;
15094;SDS011;7648;52.264;9.632;2024-03-23T07:48:49;15.67;;;6.30;;
15094;SDS011;7648;52.264;9.632;2024-03-23T07:52:51;16.63;;;7.03;;
15094;SDS011;7648;52.264;9.632;2024-03-23T07:56:52;16.13;;;7.33;;
15094;SDS011;7648;52.264;9.632;2024-03-23T08:00:55;19.37;;;6.67;;
15094;SDS011;7648;52.264;9.632;2024-03-23T08:04:59;13.43;;;5.93;;
15094;SDS011;7648;52.264;9.632;2024-03-23T08:09:00;18.10;;;6.07;;
15094;SDS011;7648;52.264;9.632;2024-03-23T08:13:02;14.57;;;6.23;;
15094;SDS011;7648;52.264;9.632;2024-03-23T08:17:05;12.93;;;5.60;;
15094;SDS011;7648;52.264;9.632;2024-03-23T08:21:08;10.30;;;5.87;;
15094;SDS011;7648;52.264;9.632;2024-03-23T08:25:10;18.70;;;6.20;;
15094;SDS011;7648;52.264;9.632;2024-03-23T08:29:12;10.40;;;5.10;;
15094;SDS011;7648;52.264;9.632;2024-03-23T08:33:14;10.67;;;5.03;;
15094;SDS011;7648;52.264;9.632;2024-03-23T08:37:17;12.20;;;4.63;;
15094;SDS011;7648;52.264;9.632;2024-03-23T08:41:19;18.47;;;5.47;;
15094;SDS011;7648;52.264;9.632;2024-03-23T08:45:21;6.43;;;4.53;;
15094;SDS011;7648;52.264;9.632;2024-03-23T08:49:23;10.23;;;4.50;;
15094;SDS011;7648;52.264;9.632;2024-03-23T08:53:26;17.00;;;4.63;;
15094;SDS011;7648;52.264;9.632;2024-03-23T08:57:29;13.27;;;4.33;;
15094;SDS011;7648;52.264;9.632;2024-03-23T09:01:30;7.23;;;3.70;;
15094;SDS011;7648;52.264;9.632;2024-03-23T09:05:32;13.33;;;5.23;;
15094;SDS011;7648;52.264;9.632;2024-03-23T09:09:41;7.17;;;4.93;;
15094;SDS011;7648;52.264;9.632;2024-03-23T09:13:42;8.00;;;5.10;;
15094;SDS011;7648;52.264;9.632;2024-03-23T09:17:44;14.30;;;5.97;;
15094;SDS011;7648;52.264;9.632;2024-03-23T09:21:46;9.60;;;4.93;;
15094;SDS011;7648;52.264;9.632;2024-03-23T09:25:49;9.10;;;4.60;;
15094;SDS011;7648;52.264;9.632;2024-03-23T09:29:51;8.30;;;4.90;;
15094;SDS011;7648;52.264;9.632;2024-03-23T09:33:53;10.60;;;4.77;;
15094;SDS011;7648;52.264;9.632;2024-03-23T09:37:55;8.17;;;4.17;;
15094;SDS011;7648;52.264;9.632;2024-03-23T09:41:59;9.30;;;3.63;;
15094;SDS011;7648;52.264;9.632;2024-03-23T09:46:01;6.63;;;3.23;;
15094;SDS011;7648;52.264;9.632;2024-03-23T09:50:04;5.97;;;3.20;;
15094;SDS011;7648;52.264;9.632;2024-03-23T09:54:07;5.03;;;3.10;;
15094;SDS011;7648;52.264;9.632;2024-03-23T09:58:13;6.83;;;2.33;;
15094;SDS011;7648;52.264;9.632;2024-03-23T10:02:16;6.73;;;3.10;;
15094;SDS011;7648;52.264;9.632;2024-03-23T10:06:21;5.30;;;2.63;;
15094;SDS011;7648;52.264;9.632;2024-03-23T10:10:24;7.37;;;3.07;;
15094;SDS011;7648;52.264;9.632;2024-03-23T10:14:29;6.27;;;2.57;;
15094;SDS011;7648;52.264;9.632;2024-03-23T10:18:31;4.63;;;2.40;;
15094;SDS011;7648;52.264;9.632;2024-03-23T10:22:38;7.77;;;2.70;;
15094;SDS011;7648;52.264;9.632;2024-03-23T10:26:41;8.07;;;2.67;;
15094;SDS011;7648;52.264;9.632;2024-03-23T10:30:44;5.93;;;2.97;;
15094;SDS011;7648;52.264;9.632;2024-03-23T10:34:46;5.23;;;2.73;;
15094;SDS011;7648;52.264;9.632;2024-03-23T10:38:49;3.83;;;2.77;;
15094;SDS011;7648;52.264;9.632;2024-03-23T10:42:52;11.13;;;3.77;;
15094;SDS011;7648;52.264;9.632;2024-03-23T10:46:58;3.53;;;3.03;;
15094;SDS011;7648;52.264;9.632;2024-03-23T10:51:01;4.43;;;2.83;;
15094;SDS011;7648;52.264;9.632;2024-03-23T10:55:04;4.00;;;3.20;;
15094;SDS011;7648;52.264;9.632;2024-03-23T10:59:07;6.73;;;3.07;;
15094;SDS011;7648;52.264;9.632;2024-03-23T11:03:30;3.23;;;2.93;;
15094;SDS011;7648;52.264;9.632;2024-03-23T11:07:33;3.83;;;2.93;;
15094;SDS011;7648;52.264;9.632;2024-03-23T11:11:35;2.77;;;2.57;;
15094;SDS011;7648;52.264;9.632;2024-03-23T11:15:36;5.57;;;2.20;;
15094;SDS011;7648;52.264;9.632;2024-03-23T11:19:40;6.47;;;3.13;;
15094;SDS011;7648;52.264;9.632;2024-03-23T11:23:42;4.90;;;2.97;;
15094;SDS011;7648;52.264;9.632;2024-03-23T11:27:44;2.80;;;2.47;;
15094;SDS011;7648;52.264;9.632;2024-03-23T11:31:46;2.50;;;2.30;;
15094;SDS011;7648;52.264;9.632;2024-03-23T11:35:49;3.77;;;2.47;;
15094;SDS011;7648;52.264;9.632;2024-03-23T11:39:52;5.37;;;3.07;;
15094;SDS011;7648;52.264;9.632;2024-03-23T11:43:54;5.17;;;3.10;;
15094;SDS011;7648;52.264;9.632;2024-03-23T11:48:05;2.87;;;2.60;;
15094;SDS011;7648;52.264;9.632;2024-03-23T11:52:09;5.40;;;3.00;;
15094;SDS011;7648;52.264;9.632;2024-03-23T11:56:11;5.37;;;2.53;;
15094;SDS011;7648;52.264;9.632;2024-03-23T12:00:20;4.37;;;2.20;;
15094;SDS011;7648;52.264;9.632;2024-03-23T12:04:25;1.90;;;1.80;;
15094;SDS011;7648;52.264;9.632;2024-03-23T12:08:30;1.70;;;1.60;;
15094;SDS011;7648;52.264;9.632;2024-03-23T12:12:33;2.63;;;2.10;;
15094;SDS011;7648;52.264;9.632;2024-03-23T12:16:35;2.53;;;1.90;;
15094;SDS011;7648;52.264;9.632;2024-03-23T12:20:37;3.37;;;2.20;;
15094;SDS011;7648;52.264;9.632;2024-03-23T12:24:40;2.57;;;2.17;;
15094;SDS011;7648;52.264;9.632;2024-03-23T12:28:45;2.17;;;2.00;;
15094;SDS011;7648;52.264;9.632;2024-03-23T12:32:47;2.23;;;2.10;;
15094;SDS011;7648;52.264;9.632;2024-03-23T12:36:49;2.53;;;2.20;;
15094;SDS011;7648;52.264;9.632;2024-03-23T12:40:52;3.60;;;2.43;;
15094;SDS011;7648;52.264;9.632;2024-03-23T12:44:54;2.23;;;1.50;;
15094;SDS011;7648;52.264;9.632;2024-03-23T12:48:56;1.30;;;1.30;;
15094;SDS011;7648;52.264;9.632;2024-03-23T12:52:59;1.77;;;1.40;;
15094;SDS011;7648;52.264;9.632;2024-03-23T12:57:03;1.63;;;1.07;;
15094;SDS011;7648;52.264;9.632;2024-03-23T13:01:05;0.93;;;0.93;;
15094;SDS011;7648;52.264;9.632;2024-03-23T13:05:07;0.93;;;0.90;;
15094;SDS011;7648;52.264;9.632;2024-03-23T13:09:10;0.87;;;0.87;;
15094;SDS011;7648;52.264;9.632;2024-03-23T13:13:13;1.00;;;1.00;;
15094;SDS011;7648;52.264;9.632;2024-03-23T13:17:15;3.07;;;1.23;;
15094;SDS011;7648;52.264;9.632;2024-03-23T13:21:17;2.23;;;1.60;;
15094;SDS011;7648;52.264;9.632;2024-03-23T13:25:19;2.37;;;1.60;;
15094;SDS011;7648;52.264;9.632;2024-03-23T13:29:23;1.60;;;1.50;;
15094;SDS011;7648;52.264;9.632;2024-03-23T13:33:25;1.80;;;1.80;;
15094;SDS011;7648;52.264;9.632;2024-03-23T13:37:26;1.60;;;1.50;;
15094;SDS011;7648;52.264;9.632;2024-03-23T13:41:28;1.97;;;1.80;;
15094;SDS011;7648;52.264;9.632;2024-03-23T13:45:31;2.20;;;2.00;;
15094;SDS011;7648;52.264;9.632;2024-03-23T13:49:33;2.50;;;2.00;;
15094;SDS011;7648;52.264;9.632;2024-03-23T13:53:36;1.90;;;1.80;;
15094;SDS011;7648;52.264;9.632;2024-03-23T13:57:38;3.40;;;1.80;;
15094;SDS011;7648;52.264;9.632;2024-03-23T14:01:41;1.83;;;1.70;;
15094;SDS011;7648;52.264;9.632;2024-03-23T14:05:43;3.70;;;1.87;;
15094;SDS011;7648;52.264;9.632;2024-03-23T14:09:47;3.07;;;2.20;;
15094;SDS011;7648;52.264;9.632;2024-03-23T14:13:49;1.90;;;1.80;;
15094;SDS011;7648;52.264;9.632;2024-03-23T14:17:52;4.93;;;1.57;;
15094;SDS011;7648;52.264;9.632;2024-03-23T14:21:55;3.50;;;1.87;;
15094;SDS011;7648;52.264;9.632;2024-03-23T14:25:56;0.80;;;0.80;;
15094;SDS011;7648;52.264;9.632;2024-03-23T14:29:58;2.87;;;0.77;;
15094;SDS011;7648;52.264;9.632;2024-03-23T14:34:02;0.90;;;0.53;;
15094;SDS011;7648;52.264;9.632;2024-03-23T14:38:04;1.07;;;0.60;;
15094;SDS011;7648;52.264;9.632;2024-03-23T14:42:06;1.50;;;0.47;;
15094;SDS011;7648;52.264;9.632;2024-03-23T14:46:09;0.60;;;0.60;;
15094;SDS011;7648;52.264;9.632;2024-03-23T14:50:13;1.17;;;0.50;;
15094;SDS011;7648;52.264;9.632;2024-03-23T14:54:16;0.83;;;0.37;;
15094;SDS011;7648;52.264;9.632;2024-03-23T14:58:18;0.70;;;0.70;;
15094;SDS011;7648;52.264;9.632;2024-03-23T15:02:20;0.87;;;0.67;;
15094;SDS011;7648;52.264;9.632;2024-03-23T15:06:23;0.90;;;0.90;;
15094;SDS011;7648;52.264;9.632;2024-03-23T15:10:25;0.97;;;0.97;;
15094;SDS011;7648;52.264;9.632;2024-03-23T15:14:27;1.13;;;1.03;;
15094;SDS011;7648;52.264;9.632;2024-03-23T15:18:29;1.10;;;1.10;;
15094;SDS011;7648;52.264;9.632;2024-03-23T15:22:33;2.70;;;1.30;;
15094;SDS011;7648;52.264;9.632;2024-03-23T15:26:35;3.13;;;1.57;;
15094;SDS011;7648;52.264;9.632;2024-03-23T15:30:36;1.40;;;1.30;;
15094;SDS011;7648;52.264;9.632;2024-03-23T15:34:38;1.30;;;1.20;;
15094;SDS011;7648;52.264;9.632;2024-03-23T15:38:41;1.83;;;1.30;;
15094;SDS011;7648;52.264;9.632;2024-03-23T15:42:43;1.97;;;1.37;;
15094;SDS011;7648;52.264;9.632;2024-03-23T15:46:45;1.33;;;1.13;;
15094;SDS011;7648;52.264;9.632;2024-03-23T15:50:50;2.57;;;1.17;;
15094;SDS011;7648;52.264;9.632;2024-03-23T15:54:55;1.03;;;0.83;;
15094;SDS011;7648;52.264;9.632;2024-03-23T15:58:58;1.80;;;0.70;;
15094;SDS011;7648;52.264;9.632;2024-03-23T16:03:05;2.30;;;0.80;;
15094;SDS011;7648;52.264;9.632;2024-03-23T16:07:07;2.40;;;0.90;;
15094;SDS011;7648;52.264;9.632;2024-03-23T16:11:11;1.17;;;0.80;;
15094;SDS011;7648;52.264;9.632;2024-03-23T16:15:13;0.60;;;0.60;;
15094;SDS011;7648;52.264;9.632;2024-03-23T16:19:15;1.13;;;0.70;;
15094;SDS011;7648;52.264;9.632;2024-03-23T16:23:17;1.20;;;1.10;;
15094;SDS011;7648;52.264;9.632;2024-03-23T16:27:20;0.77;;;0.77;;
15094;SDS011;7648;52.264;9.632;2024-03-23T16:31:22;0.67;;;0.67;;
15094;SDS011;7648;52.264;9.632;2024-03-23T16:35:23;1.27;;;1.10;;
15094;SDS011;7648;52.264;9.632;2024-03-23T16:39:25;0.90;;;0.90;;
15094;SDS011;7648;52.264;9.632;2024-03-23T16:43:28;2.50;;;1.10;;
15094;SDS011;7648;52.264;9.632;2024-03-23T16:47:30;2.17;;;1.10;;
15094;SDS011;7648;52.264;9.632;2024-03-23T16:51:34;1.77;;;1.00;;
15094;SDS011;7648;52.264;9.632;2024-03-23T16:55:36;1.40;;;1.10;;
15094;SDS011;7648;52.264;9.632;2024-03-23T16:59:39;2.03;;;1.10;;
15094;SDS011;7648;52.264;9.632;2024-03-23T17:03:41;1.50;;;1.30;;
15094;SDS011;7648;52.264;9.632;2024-03-23T17:07:43;1.30;;;1.20;;
15094;SDS011;7648;52.264;9.632;2024-03-23T17:11:45;2.53;;;1.50;;
15094;SDS011;7648;52.264;9.632;2024-03-23T17:15:50;0.90;;;0.90;;
15094;SDS011;7648;52.264;9.632;2024-03-23T17:19:58;1.03;;;1.03;;
15094;SDS011;7648;52.264;9.632;2024-03-23T17:24:01;1.40;;;1.30;;
15094;SDS011;7648;52.264;9.632;2024-03-23T17:28:04;3.30;;;1.40;;
15094;SDS011;7648;52.264;9.632;2024-03-23T17:32:09;1.57;;;1.47;;
15094;SDS011;7648;52.264;9.632;2024-03-23T17:36:10;1.37;;;1.33;;
15094;SDS011;7648;52.264;9.632;2024-03-23T17:40:12;1.93;;;1.50;;
15094;SDS011;7648;52.264;9.632;2024-03-23T17:44:14;2.40;;;2.10;;
15094;SDS011;7648;52.264;9.632;2024-03-23T17:48:17;1.97;;;1.77;;
15094;SDS011;7648;52.264;9.632;2024-03-23T17:52:19;2.63;;;2.00;;
15094;SDS011;7648;52.264;9.632;2024-03-23T17:56:21;2.73;;;1.73;;
15094;SDS011;7648;52.264;9.632;2024-03-23T18:00:23;2.00;;;1.77;;
15094;SDS011;7648;52.264;9.632;2024-03-23T18:04:27;3.07;;;1.80;;
15094;SDS011;7648;52.264;9.632;2024-03-23T18:08:29;1.93;;;1.20;;
15094;SDS011;7648;52.264;9.632;2024-03-23T18:12:30;0.93;;;0.90;;
15094;SDS011;7648;52.264;9.632;2024-03-23T18:16:33;2.90;;;1.50;;
15094;SDS011;7648;52.264;9.632;2024-03-23T18:20:37;0.63;;;0.63;;
15094;SDS011;7648;52.264;9.632;2024-03-23T18:24:39;1.10;;;0.87;;
15094;SDS011;7648;52.264;9.632;2024-03-23T18:28:41;0.77;;;0.77;;
15094;SDS011;7648;52.264;9.632;2024-03-23T18:32:43;1.60;;;0.90;;
15094;SDS011;7648;52.264;9.632;2024-03-23T18:36:46;1.13;;;1.03;;
15094;SDS011;7648;52.264;9.632;2024-03-23T18:40:48;0.90;;;0.90;;
15094;SDS011;7648;52.264;9.632;2024-03-23T18:44:50;1.67;;;0.80;;
15094;SDS011;7648;52.264;9.632;2024-03-23T18:48:53;0.67;;;0.67;;
15094;SDS011;7648;52.264;9.632;2024-03-23T18:52:57;1.63;;;0.90;;
15094;SDS011;7648;52.264;9.632;2024-03-23T18:56:59;1.10;;;1.10;;
15094;SDS011;7648;52.264;9.632;2024-03-23T19:01:02;3.70;;;1.50;;
15094;SDS011;7648;52.264;9.632;2024-03-23T19:05:05;1.63;;;1.10;;
15094;SDS011;7648;52.264;9.632;2024-03-23T19:09:09;2.03;;;1.23;;
15094;SDS011;7648;52.264;9.632;2024-03-23T19:13:12;3.23;;;1.40;;
15094;SDS011;7648;52.264;9.632;2024-03-23T19:17:14;1.63;;;1.53;;
15094;SDS011;7648;52.264;9.632;2024-03-23T19:21:16;1.63;;;1.53;;
15094;SDS011;7648;52.264;9.632;2024-03-23T19:25:20;4.27;;;1.77;;
15094;SDS011;7648;52.264;9.632;2024-03-23T19:29:23;1.40;;;1.30;;
15094;SDS011;7648;52.264;9.632;2024-03-23T19:33:25;1.47;;;1.37;;
15094;SDS011;7648;52.264;9.632;2024-03-23T19:37:27;1.00;;;1.00;;
15094;SDS011;7648;52.264;9.632;2024-03-23T19:41:30;2.33;;;1.63;;
15094;SDS011;7648;52.264;9.632;2024-03-23T19:45:32;3.30;;;1.17;;
15094;SDS011;7648;52.264;9.632;2024-03-23T19:49:34;3.70;;;1.17;;
15094;SDS011;7648;52.264;9.632;2024-03-23T19:53:36;6.03;;;3.63;;
15094;SDS011;7648;52.264;9.632;2024-03-23T19:57:40;1.37;;;1.27;;
15094;SDS011;7648;52.264;9.632;2024-03-23T20:01:42;2.93;;;1.60;;
15094;SDS011;7648;52.264;9.632;2024-03-23T20:05:44;1.60;;;1.50;;
15094;SDS011;7648;52.264;9.632;2024-03-23T20:09:46;1.37;;;1.07;;
15094;SDS011;7648;52.264;9.632;2024-03-23T20:13:50;1.53;;;1.43;;
15094;SDS011;7648;52.264;9.632;2024-03-23T20:17:52;2.63;;;1.80;;
15094;SDS011;7648;52.264;9.632;2024-03-23T20:21:55;1.50;;;1.40;;
15094;SDS011;7648;52.264;9.632;2024-03-23T20:25:57;2.03;;;1.50;;
15094;SDS011;7648;52.264;9.632;2024-03-23T20:30:01;4.67;;;1.70;;
15094;SDS011;7648;52.264;9.632;2024-03-23T20:34:05;1.83;;;1.73;;
15094;SDS011;7648;52.264;9.632;2024-03-23T20:38:07;2.30;;;2.10;;
15094;SDS011;7648;52.264;9.632;2024-03-23T20:42:09;2.50;;;1.90;;
15094;SDS011;7648;52.264;9.632;2024-03-23T20:46:13;1.90;;;1.80;;
15094;SDS011;7648;52.264;9.632;2024-03-23T20:50:15;2.37;;;2.10;;
15094;SDS011;7648;52.264;9.632;2024-03-23T20:54:18;1.90;;;1.80;;
15094;SDS011;7648;52.264;9.632;2024-03-23T20:58:21;3.53;;;1.80;;
15094;SDS011;7648;52.264;9.632;2024-03-23T21:02:24;1.80;;;1.70;;
15094;SDS011;7648;52.264;9.632;2024-03-23T21:06:26;1.60;;;1.43;;
15094;SDS011;7648;52.264;9.632;2024-03-23T21:10:28;5.17;;;1.93;;
15094;SDS011;7648;52.264;9.632;2024-03-23T21:14:30;4.53;;;1.73;;
15094;SDS011;7648;52.264;9.632;2024-03-23T21:18:34;2.17;;;1.57;;
15094;SDS011;7648;52.264;9.632;2024-03-23T21:22:36;2.57;;;1.50;;
15094;SDS011;7648;52.264;9.632;2024-03-23T21:26:38;1.37;;;1.23;;
15094;SDS011;7648;52.264;9.632;2024-03-23T21:30:40;1.73;;;1.63;;
15094;SDS011;7648;52.264;9.632;2024-03-23T21:34:44;1.97;;;1.87;;
15094;SDS011;7648;52.264;9.632;2024-03-23T21:38:46;3.20;;;2.90;;
15094;SDS011;7648;52.264;9.632;2024-03-23T21:42:48;2.23;;;1.77;;
15094;SDS011;7648;52.264;9.632;2024-03-23T21:46:50;2.07;;;1.90;;
15094;SDS011;7648;52.264;9.632;2024-03-23T21:50:53;3.83;;;2.23;;
15094;SDS011;7648;52.264;9.632;2024-03-23T21:54:59;3.47;;;2.20;;
15094;SDS011;7648;52.264;9.632;2024-03-23T21:59:01;2.37;;;2.17;;
15094;SDS011;7648;52.264;9.632;2024-03-23T22:03:03;2.50;;;2.30;;
15094;SDS011;7648;52.264;9.632;2024-03-23T22:07:08;2.40;;;2.27;;
15094;SDS011;7648;52.264;9.632;2024-03-23T22:11:10;5.77;;;3.40;;
15094;SDS011;7648;52.264;9.632;2024-03-23T22:15:12;2.90;;;2.63;;
15094;SDS011;7648;52.264;9.632;2024-03-23T22:19:15;3.10;;;2.80;;
15094;SDS011;7648;52.264;9.632;2024-03-23T22:23:19;3.63;;;3.17;;
15094;SDS011;7648;52.264;9.632;2024-03-23T22:27:20;4.00;;;3.60;;
15094;SDS011;7648;52.264;9.632;2024-03-23T22:31:22;3.60;;;3.30;;
15094;SDS011;7648;52.264;9.632;2024-03-23T22:35:24;6.77;;;4.10;;
15094;SDS011;7648;52.264;9.632;2024-03-23T22:39:28;5.10;;;4.60;;
15094;SDS011;7648;52.264;9.632;2024-03-23T22:43:30;5.07;;;4.00;;
15094;SDS011;7648;52.264;9.632;2024-03-23T22:47:33;6.00;;;4.67;;
15094;SDS011;7648;52.264;9.632;2024-03-23T22:51:35;4.60;;;4.07;;
15094;SDS011;7648;52.264;9.632;2024-03-23T22:55:39;4.50;;;4.10;;
15094;SDS011;7648;52.264;9.632;2024-03-23T22:59:41;4.50;;;4.10;;
15094;SDS011;7648;52.264;9.632;2024-03-23T23:03:43;5.83;;;4.50;;
15094;SDS011;7648;52.264;9.632;2024-03-23T23:07:45;4.33;;;3.83;;
15094;SDS011;7648;52.264;9.632;2024-03-23T23:11:48;5.37;;;4.03;;
15094;SDS011;7648;52.264;9.632;2024-03-23T23:15:50;6.73;;;4.47;;
15094;SDS011;7648;52.264;9.632;2024-03-23T23:19:54;4.63;;;4.30;;
15094;SDS011;7648;52.264;9.632;2024-03-23T23:23:55;5.87;;;5.37;;
15094;SDS011;7648;52.264;9.632;2024-03-23T23:27:58;4.63;;;4.23;;
15094;SDS011;7648;52.264;9.632;2024-03-23T23:32:00;6.83;;;4.03;;
15094;SDS011;7648;52.264;9.632;2024-03-23T23:36:03;4.27;;;3.97;;
15094;SDS011;7648;52.264;9.632;2024-03-23T23:40:06;4.60;;;4.20;;
15094;SDS011;7648;52.264;9.632;2024-03-23T23:44:10;6.03;;;4.17;;
15094;SDS011;7648;52.264;9.632;2024-03-23T23:48:12;5.17;;;4.37;;
15094;SDS011;7648;52.264;9.632;2024-03-23T23:52:15;5.57;;;5.07;;
15094;SDS011;7648;52.264;9.632;2024-03-23T23:56:17;5.20;;;4.70;;
